createdAt,value
2017-04-27T06:56:45.850Z,1010.03
2017-04-27T06:57:26.407Z,1010.02
2017-04-27T06:58:07.013Z,1010.06
2017-04-27T06:58:47.763Z,1010.08
2017-04-27T06:59:28.452Z,1010.07
2017-04-27T07:00:09.112Z,1010.06
2017-04-27T07:00:49.766Z,1010.07
2017-04-27T07:01:30.441Z,1010.07
2017-04-27T07:02:11.033Z,1010.06
2017-04-27T07:02:51.595Z,1010.06
2017-04-27T07:03:32.449Z,1010.03
2017-04-27T07:04:13.557Z,1010.05
2017-04-27T07:04:54.241Z,1010.05
2017-04-27T07:05:34.810Z,1010.09
2017-04-27T07:06:15.446Z,1010.07
2017-04-27T07:06:56.151Z,1010.06
2017-04-27T07:07:37.868Z,1010.03
2017-04-27T07:08:18.570Z,1010.06
2017-04-27T07:08:59.384Z,1010.06
2017-04-27T07:09:40.011Z,1010.05
2017-04-27T07:10:21.765Z,1010.08
2017-04-27T07:11:02.536Z,1010.08
2017-04-27T07:11:43.108Z,1010.04
2017-04-27T07:12:23.835Z,1010.01
2017-04-27T07:13:04.574Z,1010.05
2017-04-27T07:13:45.350Z,1010.03
2017-04-27T07:14:26.125Z,1010.05
2017-04-27T07:15:06.878Z,1010.05
2017-04-27T07:15:47.621Z,1010.03
2017-04-27T07:16:28.379Z,1010.02
2017-04-27T07:17:09.942Z,1010.01
2017-04-27T07:17:50.534Z,1010.05
2017-04-27T07:18:31.205Z,1010.02
2017-04-27T07:19:11.903Z,1010.03
2017-04-27T07:19:52.556Z,1010.01
2017-04-27T07:20:33.108Z,1010.04
2017-04-27T07:21:13.832Z,1010.03
2017-04-27T07:21:54.516Z,1010.02
2017-04-27T07:22:35.265Z,1010
2017-04-27T07:23:16.026Z,1010.03
2017-04-27T07:23:56.772Z,1010.09
2017-04-27T07:24:37.540Z,1010.08
2017-04-27T07:25:18.297Z,1010.05
2017-04-27T07:25:59.052Z,1010.11
2017-04-27T07:26:39.804Z,1010.07
2017-04-27T07:27:20.559Z,1010.08
2017-04-27T07:28:01.312Z,1010.03
2017-04-27T07:28:42.068Z,1010.07
2017-04-27T07:29:22.823Z,1010.12
2017-04-27T07:30:03.477Z,1010.14
2017-04-27T07:30:44.127Z,1010.09
2017-04-27T07:31:24.679Z,1010.09
2017-04-27T07:32:05.405Z,1010.1
2017-04-27T07:32:46.089Z,1010.07
2017-04-27T07:33:27.869Z,1010.12
2017-04-27T07:34:08.528Z,1010.08
2017-04-27T07:34:49.385Z,1010.12
2017-04-27T07:35:30.145Z,1010.1
2017-04-27T07:36:10.888Z,1010.1
2017-04-27T07:36:51.642Z,1010.11
2017-04-27T07:37:33.426Z,1010.11
2017-04-27T07:38:14.082Z,1010.15
2017-04-27T07:38:54.828Z,1010.12
2017-04-27T07:39:35.584Z,1010.16
2017-04-27T07:40:16.342Z,1010.16
2017-04-27T07:40:57.106Z,1010.15
2017-04-27T07:41:37.685Z,1010.19
2017-04-27T07:42:18.429Z,1010.15
2017-04-27T07:42:59.136Z,1010.17
2017-04-27T07:43:39.890Z,1010.21
2017-04-27T07:44:21.642Z,1010.29
2017-04-27T07:45:02.309Z,1010.31
2017-04-27T07:45:42.971Z,1010.31
2017-04-27T07:46:23.559Z,1010.3
2017-04-27T07:47:04.215Z,1010.29
2017-04-27T07:47:44.915Z,1010.26
2017-04-27T07:48:25.792Z,1010.3
2017-04-27T07:49:06.342Z,1010.23
2017-04-27T07:49:47.043Z,1010.21
2017-04-27T07:50:27.789Z,1010.15
2017-04-27T07:51:08.497Z,1010.16
2017-04-27T07:51:49.490Z,1010.12
2017-04-27T07:52:30.158Z,1010.14
2017-04-27T07:53:10.933Z,1010.13
2017-04-27T07:53:51.667Z,1010.12
2017-04-27T07:54:32.323Z,1010.09
2017-04-27T07:55:12.980Z,1010.12
2017-04-27T07:55:53.744Z,1010.08
2017-04-27T07:56:34.509Z,1010.13
2017-04-27T07:57:15.185Z,1010.16
2017-04-27T07:57:55.763Z,1010.11
2017-04-27T07:58:36.446Z,1010.15
2017-04-27T07:59:17.176Z,1010.17
2017-04-27T07:59:57.840Z,1010.18
2017-04-27T08:00:38.431Z,1010.19
2017-04-27T08:01:19.169Z,1010.23
2017-04-27T08:01:59.859Z,1010.24
2017-04-27T08:02:40.515Z,1010.19
2017-04-27T08:03:21.073Z,1010.18
2017-04-27T08:04:01.771Z,1010.2
2017-04-27T08:04:42.474Z,1010.16
2017-04-27T08:05:23.234Z,1010.1
2017-04-27T08:06:03.793Z,1010.13
2017-04-27T08:06:44.494Z,1010.19
2017-04-27T08:07:25.186Z,1010.19
2017-04-27T08:08:05.841Z,1010.18
2017-04-27T08:08:46.423Z,1010.16
2017-04-27T08:09:27.114Z,1010.24
2017-04-27T08:10:07.824Z,1010.15
2017-04-27T08:10:48.557Z,1010.2
2017-04-27T08:11:29.150Z,1010.14
2017-04-27T08:12:09.812Z,1010.18
2017-04-27T08:12:50.531Z,1010.18
2017-04-27T08:13:31.179Z,1010.2
2017-04-27T08:14:11.741Z,1010.19
2017-04-27T08:14:52.425Z,1010.14
2017-04-27T08:15:33.120Z,1010.14
2017-04-27T08:16:13.867Z,1010.16
2017-04-27T08:16:54.516Z,1010.18
2017-04-27T08:17:35.235Z,1010.15
2017-04-27T08:18:15.960Z,1010.14
2017-04-27T08:18:56.702Z,1010.13
2017-04-27T08:19:37.283Z,1010.16
2017-04-27T08:20:18.021Z,1010.17
2017-04-27T08:20:58.769Z,1010.15
2017-04-27T08:21:39.341Z,1010.13
2017-04-27T08:22:20.013Z,1010.17
2017-04-27T08:23:00.608Z,1010.16
2017-04-27T08:23:41.261Z,1010.15
2017-04-27T08:24:21.908Z,1010.15
2017-04-27T08:25:02.572Z,1010.14
2017-04-27T08:25:43.232Z,1010.16
2017-04-27T08:26:23.884Z,1010.18
2017-04-27T08:27:05.443Z,1010.18
2017-04-27T08:27:46.114Z,1010.2
2017-04-27T08:28:26.749Z,1010.2
2017-04-27T08:29:07.403Z,1010.26
2017-04-27T08:29:48.062Z,1010.27
2017-04-27T08:30:28.734Z,1010.28
2017-04-27T08:31:09.368Z,1010.3
2017-04-27T08:31:49.963Z,1010.29
2017-04-27T08:32:30.634Z,1010.29
2017-04-27T08:33:11.318Z,1010.32
2017-04-27T08:33:51.976Z,1010.3
2017-04-27T08:34:32.566Z,1010.33
2017-04-27T08:35:14.285Z,1010.37
2017-04-27T08:35:54.954Z,1010.36
2017-04-27T08:36:35.626Z,1010.33
2017-04-27T08:37:16.195Z,1010.32
2017-04-27T08:37:56.786Z,1010.3
2017-04-27T08:38:37.348Z,1010.3
2017-04-27T08:39:17.967Z,1010.24
2017-04-27T08:39:58.581Z,1010.24
2017-04-27T08:40:43.828Z,1010.29
2017-04-27T08:41:25.626Z,1010.29
2017-04-27T08:42:06.260Z,1010.29
2017-04-27T08:42:46.912Z,1010.35
2017-04-27T08:43:27.563Z,1010.34
2017-04-27T08:44:08.246Z,1010.35
2017-04-27T08:44:48.869Z,1010.28
2017-04-27T08:45:29.519Z,1010.33
2017-04-27T08:46:11.244Z,1010.37
2017-04-27T08:46:51.824Z,1010.37
2017-04-27T08:47:33.525Z,1010.37
2017-04-27T08:48:14.277Z,1010.38
2017-04-27T08:48:54.936Z,1010.36
2017-04-27T08:49:35.591Z,1010.37
2017-04-27T08:50:16.240Z,1010.4
2017-04-27T08:50:56.803Z,1010.4
2017-04-27T08:51:38.470Z,1010.41
2017-04-27T08:52:19.121Z,1010.42
2017-04-27T08:52:59.770Z,1010.44
2017-04-27T08:53:40.424Z,1010.5
2017-04-27T08:54:21.077Z,1010.46
2017-04-27T08:55:01.734Z,1010.47
2017-04-27T08:55:43.309Z,1010.5
2017-04-27T08:56:23.957Z,1010.51
2017-04-27T08:57:04.523Z,1010.48
2017-04-27T08:57:45.166Z,1010.45
2017-04-27T08:58:25.818Z,1010.41
2017-04-27T08:59:06.468Z,1010.42
2017-04-27T08:59:47.127Z,1010.43
2017-04-27T09:00:27.783Z,1010.36
2017-04-27T09:01:08.331Z,1010.35
2017-04-27T09:01:48.975Z,1010.4
2017-04-27T09:02:29.636Z,1010.37
2017-04-27T09:03:10.290Z,1010.32
2017-04-27T09:03:50.932Z,1010.34
2017-04-27T09:04:31.592Z,1010.32
2017-04-27T09:05:12.245Z,1010.27
2017-04-27T09:05:52.902Z,1010.27
2017-04-27T09:06:38.367Z,1010.29
2017-04-27T09:07:18.973Z,1010.25
2017-04-27T09:07:59.576Z,1010.22
2017-04-27T09:08:40.182Z,1010.22
2017-04-27T09:09:20.824Z,1010.12
2017-04-27T09:10:01.390Z,1010.23
2017-04-27T09:10:41.977Z,1010.21
2017-04-27T09:11:22.543Z,1010.31
2017-04-27T09:12:03.099Z,1010.27
2017-04-27T09:12:43.656Z,1010.34
2017-04-27T09:13:24.234Z,1010.35
2017-04-27T09:14:04.894Z,1010.35
2017-04-27T09:14:45.441Z,1010.39
2017-04-27T09:15:26.123Z,1010.39
2017-04-27T09:16:06.745Z,1010.38
2017-04-27T09:16:47.395Z,1010.41
2017-04-27T09:17:28.056Z,1010.38
2017-04-27T09:18:08.701Z,1010.4
2017-04-27T09:18:49.287Z,1010.4
2017-04-27T09:19:29.946Z,1010.4
2017-04-27T09:20:11.551Z,1010.37
2017-04-27T09:20:52.180Z,1010.36
2017-04-27T09:21:32.889Z,1010.37
2017-04-27T09:22:13.485Z,1010.38
2017-04-27T09:22:54.141Z,1010.42
2017-04-27T09:23:34.745Z,1010.39
2017-04-27T09:24:15.348Z,1010.41
2017-04-27T09:24:55.957Z,1010.39
2017-04-27T09:25:36.537Z,1010.42
2017-04-27T09:26:17.149Z,1010.44
2017-04-27T09:26:57.778Z,1010.42
2017-04-27T09:27:38.325Z,1010.42
2017-04-27T09:28:18.959Z,1010.42
2017-04-27T09:28:59.521Z,1010.39
2017-04-27T09:29:40.082Z,1010.34
2017-04-27T09:30:20.760Z,1010.31
2017-04-27T09:31:01.337Z,1010.32
2017-04-27T09:31:41.978Z,1010.3
2017-04-27T09:32:23.641Z,1010.25
2017-04-27T09:33:04.289Z,1010.27
2017-04-27T09:33:44.947Z,1010.28
2017-04-27T09:34:25.513Z,1010.23
2017-04-27T09:35:06.149Z,1010.22
2017-04-27T09:35:46.795Z,1010.23
2017-04-27T09:36:28.464Z,1010.29
2017-04-27T09:37:09.131Z,1010.31
2017-04-27T09:37:49.683Z,1010.3
2017-04-27T09:38:30.359Z,1010.31
2017-04-27T09:39:10.992Z,1010.35
2017-04-27T09:39:51.550Z,1010.41
2017-04-27T09:40:32.248Z,1010.43
2017-04-27T09:41:12.848Z,1010.42
2017-04-27T09:41:53.430Z,1010.41
2017-04-27T09:42:34.050Z,1010.5
2017-04-27T09:43:14.708Z,1010.47
2017-04-27T09:43:55.358Z,1010.51
2017-04-27T09:44:35.990Z,1010.46
2017-04-27T09:45:16.681Z,1010.42
2017-04-27T09:45:57.330Z,1010.43
2017-04-27T09:46:38.002Z,1010.39
2017-04-27T09:47:18.631Z,1010.4
2017-04-27T09:47:59.381Z,1010.33
2017-04-27T09:48:40.034Z,1010.32
2017-04-27T09:49:20.684Z,1010.29
2017-04-27T09:50:01.331Z,1010.34
2017-04-27T09:50:41.991Z,1010.35
2017-04-27T09:51:22.638Z,1010.29
2017-04-27T09:52:03.297Z,1010.3
2017-04-27T09:52:43.943Z,1010.3
2017-04-27T09:53:24.609Z,1010.28
2017-04-27T09:54:05.276Z,1010.27
2017-04-27T09:54:46.025Z,1010.29
2017-04-27T09:55:26.785Z,1010.31
2017-04-27T09:56:07.407Z,1010.3
2017-04-27T09:56:48.065Z,1010.3
2017-04-27T09:57:28.818Z,1010.3
2017-04-27T09:58:09.472Z,1010.35
2017-04-27T09:58:50.126Z,1010.32
2017-04-27T09:59:30.779Z,1010.31
2017-04-27T10:00:11.439Z,1010.31
2017-04-27T10:00:52.090Z,1010.28
2017-04-27T10:01:32.739Z,1010.26
2017-04-27T10:02:13.321Z,1010.22
2017-04-27T10:02:55.943Z,1010.23
2017-04-27T10:03:36.659Z,1010.17
2017-04-27T10:04:17.295Z,1010.16
2017-04-27T10:04:57.872Z,1010.15
2017-04-27T10:05:44.513Z,1010.15
2017-04-27T10:06:25.062Z,1010.14
2017-04-27T10:07:10.292Z,1010.18
2017-04-27T10:07:51.077Z,1010.21
2017-04-27T10:08:31.758Z,1010.26
2017-04-27T10:09:12.560Z,1010.25
2017-04-27T10:09:53.193Z,1010.26
2017-04-27T10:10:33.944Z,1010.26
2017-04-27T10:11:14.793Z,1010.25
2017-04-27T10:11:55.459Z,1010.26
2017-04-27T10:12:36.231Z,1010.33
2017-04-27T10:13:16.950Z,1010.32
2017-04-27T10:13:57.731Z,1010.3
2017-04-27T10:14:38.478Z,1010.3
2017-04-27T10:15:20.189Z,1010.31
2017-04-27T10:16:00.916Z,1010.3
2017-04-27T10:16:41.664Z,1010.29
2017-04-27T10:17:22.449Z,1010.24
2017-04-27T10:18:03.254Z,1010.26
2017-04-27T10:18:43.806Z,1010.26
2017-04-27T10:19:24.461Z,1010.22
2017-04-27T10:20:05.159Z,1010.26
2017-04-27T10:20:45.907Z,1010.19
2017-04-27T10:21:26.517Z,1010.14
2017-04-27T10:22:07.230Z,1010.14
2017-04-27T10:22:49.013Z,1010.15
2017-04-27T10:23:29.762Z,1010.15
2017-04-27T10:24:10.499Z,1010.15
2017-04-27T10:24:51.251Z,1010.14
2017-04-27T10:25:32.018Z,1010.18
2017-04-27T10:26:12.655Z,1010.17
2017-04-27T10:26:53.422Z,1010.18
2017-04-27T10:27:34.080Z,1010.19
2017-04-27T10:28:14.826Z,1010.18
2017-04-27T10:28:55.470Z,1010.17
2017-04-27T10:29:36.125Z,1010.18
2017-04-27T10:30:16.784Z,1010.21
2017-04-27T10:30:57.432Z,1010.16
2017-04-27T10:31:38.077Z,1010.16
2017-04-27T10:32:18.665Z,1010.18
2017-04-27T10:32:59.337Z,1010.13
2017-04-27T10:33:39.927Z,1010.14
2017-04-27T10:34:20.666Z,1010.11
2017-04-27T10:35:01.194Z,1010.13
2017-04-27T10:35:41.881Z,1010.12
2017-04-27T10:36:24.491Z,1010.18
2017-04-27T10:37:05.154Z,1010.16
2017-04-27T10:37:45.706Z,1010.16
2017-04-27T10:38:27.388Z,1010.18
2017-04-27T10:39:08.035Z,1010.2
2017-04-27T10:39:49.711Z,1010.16
2017-04-27T10:40:31.388Z,1010.22
2017-04-27T10:41:13.065Z,1010.18
2017-04-27T10:41:53.720Z,1010.18
2017-04-27T10:42:34.373Z,1010.17
2017-04-27T10:43:15.027Z,1010.16
2017-04-27T10:43:56.084Z,1010.14
2017-04-27T10:44:36.732Z,1010.1
2017-04-27T10:45:18.410Z,1010.09
2017-04-27T10:45:59.065Z,1010.07
2017-04-27T10:46:41.668Z,1010.02
2017-04-27T10:47:22.257Z,1010.01
2017-04-27T10:48:02.928Z,1009.98
2017-04-27T10:48:43.517Z,1010.01
2017-04-27T10:49:25.102Z,1009.98
2017-04-27T10:50:05.659Z,1009.97
2017-04-27T10:50:46.373Z,1009.95
2017-04-27T10:51:27.043Z,1009.96
2017-04-27T10:52:07.668Z,1009.92
2017-04-27T10:52:48.330Z,1009.92
2017-04-27T10:53:28.978Z,1009.96
2017-04-27T10:54:09.629Z,1009.96
2017-04-27T10:54:50.284Z,1009.94
2017-04-27T10:55:30.936Z,1009.96
2017-04-27T10:56:11.589Z,1009.97
2017-04-27T10:56:52.234Z,1009.96
2017-04-27T10:57:32.797Z,1009.92
2017-04-27T10:58:13.453Z,1009.95
2017-04-27T10:58:54.092Z,1009.99
2017-04-27T10:59:34.643Z,1009.92
2017-04-27T11:00:15.290Z,1009.94
2017-04-27T11:00:55.961Z,1009.92
2017-04-27T11:01:36.539Z,1009.85
2017-04-27T11:02:18.179Z,1009.85
2017-04-27T11:02:59.851Z,1009.79
2017-04-27T11:03:40.504Z,1009.8
2017-04-27T11:04:21.160Z,1009.76
2017-04-27T11:05:01.812Z,1009.78
2017-04-27T11:05:42.471Z,1009.77
2017-04-27T11:06:27.830Z,1009.82
2017-04-27T11:07:08.393Z,1009.72
2017-04-27T11:07:50.004Z,1009.77
2017-04-27T11:08:30.604Z,1009.77
2017-04-27T11:09:11.166Z,1009.78
2017-04-27T11:09:51.910Z,1009.75
2017-04-27T11:10:32.484Z,1009.78
2017-04-27T11:11:13.082Z,1009.82
2017-04-27T11:11:53.665Z,1009.81
2017-04-27T11:12:34.322Z,1009.81
2017-04-27T11:13:14.876Z,1009.87
2017-04-27T11:13:55.472Z,1009.86
2017-04-27T11:14:36.075Z,1009.86
2017-04-27T11:15:16.735Z,1009.85
2017-04-27T11:15:57.295Z,1009.81
2017-04-27T11:16:37.868Z,1009.84
2017-04-27T11:17:18.606Z,1009.85
2017-04-27T11:17:59.232Z,1009.85
2017-04-27T11:18:39.892Z,1009.84
2017-04-27T11:19:20.848Z,1009.84
2017-04-27T11:20:01.454Z,1009.87
2017-04-27T11:20:42.050Z,1009.86
2017-04-27T11:21:22.638Z,1009.85
2017-04-27T11:22:03.374Z,1009.86
2017-04-27T11:22:44.017Z,1009.81
2017-04-27T11:23:24.674Z,1009.83
2017-04-27T11:24:05.234Z,1009.85
2017-04-27T11:24:45.833Z,1009.85
2017-04-27T11:25:26.407Z,1009.88
2017-04-27T11:26:06.989Z,1009.89
2017-04-27T11:26:47.643Z,1009.85
2017-04-27T11:27:28.288Z,1009.85
2017-04-27T11:28:08.928Z,1009.86
2017-04-27T11:28:49.584Z,1009.85
2017-04-27T11:29:30.235Z,1009.84
2017-04-27T11:30:10.894Z,1009.87
2017-04-27T11:30:51.538Z,1009.86
2017-04-27T11:31:32.297Z,1009.83
2017-04-27T11:32:12.887Z,1009.84
2017-04-27T11:32:53.574Z,1009.82
2017-04-27T11:33:34.149Z,1009.83
2017-04-27T11:34:14.813Z,1009.84
2017-04-27T11:34:55.406Z,1009.81
2017-04-27T11:35:36.107Z,1009.84
2017-04-27T11:36:16.760Z,1009.87
2017-04-27T11:36:57.417Z,1009.87
2017-04-27T11:37:37.993Z,1009.82
2017-04-27T11:38:18.620Z,1009.83
2017-04-27T11:39:00.298Z,1009.82
2017-04-27T11:39:40.881Z,1009.77
2017-04-27T11:40:21.502Z,1009.71
2017-04-27T11:41:02.181Z,1009.72
2017-04-27T11:41:42.736Z,1009.71
2017-04-27T11:42:23.361Z,1009.71
2017-04-27T11:43:04.012Z,1009.7
2017-04-27T11:43:44.595Z,1009.71
2017-04-27T11:44:25.218Z,1009.72
2017-04-27T11:45:05.877Z,1009.68
2017-04-27T11:45:46.448Z,1009.67
2017-04-27T11:46:27.070Z,1009.71
2017-04-27T11:47:07.725Z,1009.71
2017-04-27T11:47:48.377Z,1009.61
2017-04-27T11:48:29.032Z,1009.64
2017-04-27T11:49:10.715Z,1009.61
2017-04-27T11:49:51.364Z,1009.6
2017-04-27T11:50:32.012Z,1009.62
2017-04-27T11:51:12.668Z,1009.56
2017-04-27T11:51:53.321Z,1009.59
2017-04-27T11:52:34.307Z,1009.61
2017-04-27T11:53:14.936Z,1009.63
2017-04-27T11:53:55.601Z,1009.63
2017-04-27T11:54:36.178Z,1009.64
2017-04-27T11:55:16.788Z,1009.61
2017-04-27T11:55:57.444Z,1009.59
2017-04-27T11:56:38.029Z,1009.59
2017-04-27T11:57:19.188Z,1009.58
2017-04-27T11:57:59.969Z,1009.61
2017-04-27T11:58:40.565Z,1009.64
2017-04-27T11:59:22.247Z,1009.63
2017-04-27T12:00:02.917Z,1009.6
2017-04-27T12:00:43.559Z,1009.66
2017-04-27T12:01:24.218Z,1009.63
2017-04-27T12:02:04.867Z,1009.61
2017-04-27T12:02:45.542Z,1009.64
2017-04-27T12:03:26.174Z,1009.66
2017-04-27T12:04:06.829Z,1009.64
2017-04-27T12:04:47.475Z,1009.65
2017-04-27T12:05:28.137Z,1009.69
2017-04-27T12:06:08.874Z,1009.68
2017-04-27T12:06:49.531Z,1009.68
2017-04-27T12:07:30.370Z,1009.72
2017-04-27T12:08:10.949Z,1009.74
2017-04-27T12:08:51.600Z,1009.7
2017-04-27T12:09:32.254Z,1009.74
2017-04-27T12:10:12.906Z,1009.71
2017-04-27T12:10:53.565Z,1009.7
2017-04-27T12:11:34.218Z,1009.7
2017-04-27T12:12:14.861Z,1009.65
2017-04-27T12:12:55.445Z,1009.65
2017-04-27T12:13:36.054Z,1009.6
2017-04-27T12:14:16.732Z,1009.64
2017-04-27T12:14:57.317Z,1009.63
2017-04-27T12:15:37.939Z,1009.55
2017-04-27T12:16:18.576Z,1009.58
2017-04-27T12:16:59.136Z,1009.54
2017-04-27T12:17:39.792Z,1009.57
2017-04-27T12:18:20.851Z,1009.52
2017-04-27T12:19:01.445Z,1009.56
2017-04-27T12:19:42.048Z,1009.47
2017-04-27T12:20:22.697Z,1009.44
2017-04-27T12:21:03.278Z,1009.58
2017-04-27T12:21:43.909Z,1009.58
2017-04-27T12:22:24.558Z,1009.53
2017-04-27T12:23:05.222Z,1009.6
2017-04-27T12:23:45.891Z,1009.59
2017-04-27T12:24:26.516Z,1009.58
2017-04-27T12:25:07.177Z,1009.6
2017-04-27T12:25:47.819Z,1009.6
2017-04-27T12:26:28.470Z,1009.53
2017-04-27T12:27:09.155Z,1009.57
2017-04-27T12:27:49.777Z,1009.55
2017-04-27T12:28:30.437Z,1009.56
2017-04-27T12:29:11.083Z,1009.56
2017-04-27T12:29:51.736Z,1009.61
2017-04-27T12:30:32.391Z,1009.62
2017-04-27T12:31:13.046Z,1009.59
2017-04-27T12:31:53.702Z,1009.65
2017-04-27T12:32:34.352Z,1009.64
2017-04-27T12:33:15.008Z,1009.64
2017-04-27T12:33:55.663Z,1009.65
2017-04-27T12:34:36.316Z,1009.68
2017-04-27T12:35:16.968Z,1009.66
2017-04-27T12:35:57.637Z,1009.7
2017-04-27T12:36:38.380Z,1009.66
2017-04-27T12:37:19.132Z,1009.68
2017-04-27T12:37:59.763Z,1009.69
2017-04-27T12:38:40.418Z,1009.66
